sensor_id;sensor_type;location;lat;lon;timestamp;P1;durP1;ratioP1;P2;durP2;ratioP2
60582;SDS011;46415;47.536;19.066;2023-01-01T00:00:47;55.00;;;27.40;;
60582;SDS011;46415;47.536;19.066;2023-01-01T00:03:54;56.45;;;29.63;;
60582;SDS011;46415;47.536;19.066;2023-01-01T00:06:59;66.85;;;33.88;;
60582;SDS011;46415;47.536;19.066;2023-01-01T00:10:02;69.90;;;35.67;;
60582;SDS011;46415;47.536;19.066;2023-01-01T00:13:24;65.82;;;35.58;;
60582;SDS011;46415;47.536;19.066;2023-01-01T00:16:26;63.87;;;32.60;;
60582;SDS011;46415;47.536;19.066;2023-01-01T00:19:29;63.58;;;32.40;;
60582;SDS011;46415;47.536;19.066;2023-01-01T00:22:32;57.28;;;30.92;;
60582;SDS011;46415;47.536;19.066;2023-01-01T00:25:55;53.85;;;33.15;;
60582;SDS011;46415;47.536;19.066;2023-01-01T00:28:58;64.00;;;31.90;;
60582;SDS011;46415;47.536;19.066;2023-01-01T00:32:00;56.78;;;33.20;;
60582;SDS011;46415;47.536;19.066;2023-01-01T00:35:03;58.97;;;33.42;;
60582;SDS011;46415;47.536;19.066;2023-01-01T00:38:06;65.72;;;33.85;;
60582;SDS011;46415;47.536;19.066;2023-01-01T00:41:10;58.00;;;32.17;;
60582;SDS011;46415;47.536;19.066;2023-01-01T00:44:14;54.83;;;29.75;;
60582;SDS011;46415;47.536;19.066;2023-01-01T00:47:17;62.47;;;34.15;;
60582;SDS011;46415;47.536;19.066;2023-01-01T00:50:20;59.17;;;29.40;;
60582;SDS011;46415;47.536;19.066;2023-01-01T00:53:24;46.90;;;27.73;;
60582;SDS011;46415;47.536;19.066;2023-01-01T00:56:27;45.88;;;27.65;;
60582;SDS011;46415;47.536;19.066;2023-01-01T00:59:30;53.53;;;29.05;;
60582;SDS011;46415;47.536;19.066;2023-01-01T01:02:33;57.33;;;30.00;;
60582;SDS011;46415;47.536;19.066;2023-01-01T01:05:36;51.33;;;27.60;;
60582;SDS011;46415;47.536;19.066;2023-01-01T01:08:41;70.15;;;32.42;;
60582;SDS011;46415;47.536;19.066;2023-01-01T01:11:46;59.80;;;28.85;;
60582;SDS011;46415;47.536;19.066;2023-01-01T01:14:49;71.55;;;29.73;;
60582;SDS011;46415;47.536;19.066;2023-01-01T01:17:52;72.95;;;29.35;;
60582;SDS011;46415;47.536;19.066;2023-01-01T01:20:54;58.47;;;33.17;;
60582;SDS011;46415;47.536;19.066;2023-01-01T01:23:58;68.10;;;29.80;;
60582;SDS011;46415;47.536;19.066;2023-01-01T01:27:01;62.92;;;25.98;;
60582;SDS011;46415;47.536;19.066;2023-01-01T01:30:05;58.13;;;26.35;;
60582;SDS011;46415;47.536;19.066;2023-01-01T01:33:08;59.97;;;23.60;;
60582;SDS011;46415;47.536;19.066;2023-01-01T01:36:11;39.40;;;21.83;;
60582;SDS011;46415;47.536;19.066;2023-01-01T01:39:15;47.30;;;19.52;;
60582;SDS011;46415;47.536;19.066;2023-01-01T01:42:17;38.88;;;21.62;;
60582;SDS011;46415;47.536;19.066;2023-01-01T01:45:20;37.90;;;20.75;;
60582;SDS011;46415;47.536;19.066;2023-01-01T01:48:32;50.83;;;20.08;;
60582;SDS011;46415;47.536;19.066;2023-01-01T01:51:40;63.15;;;20.98;;
60582;SDS011;46415;47.536;19.066;2023-01-01T01:54:44;33.08;;;20.75;;
60582;SDS011;46415;47.536;19.066;2023-01-01T01:57:47;35.30;;;20.65;;
60582;SDS011;46415;47.536;19.066;2023-01-01T02:00:50;50.40;;;22.48;;
60582;SDS011;46415;47.536;19.066;2023-01-01T02:03:57;61.45;;;24.80;;
60582;SDS011;46415;47.536;19.066;2023-01-01T02:07:01;42.27;;;21.90;;
60582;SDS011;46415;47.536;19.066;2023-01-01T02:10:04;45.10;;;23.65;;
60582;SDS011;46415;47.536;19.066;2023-01-01T02:13:08;42.15;;;22.50;;
60582;SDS011;46415;47.536;19.066;2023-01-01T02:29:47;38.95;;;22.80;;
60582;SDS011;46415;47.536;19.066;2023-01-01T02:32:58;40.65;;;23.08;;
60582;SDS011;46415;47.536;19.066;2023-01-01T02:39:08;60.30;;;20.55;;
60582;SDS011;46415;47.536;19.066;2023-01-01T02:42:12;49.35;;;23.42;;
60582;SDS011;46415;47.536;19.066;2023-01-01T02:45:16;50.97;;;23.60;;
60582;SDS011;46415;47.536;19.066;2023-01-01T02:54:51;41.10;;;22.80;;
60582;SDS011;46415;47.536;19.066;2023-01-01T03:05:47;38.10;;;22.13;;
60582;SDS011;46415;47.536;19.066;2023-01-01T03:15:45;50.70;;;24.17;;
60582;SDS011;46415;47.536;19.066;2023-01-01T03:22:14;52.30;;;23.33;;
60582;SDS011;46415;47.536;19.066;2023-01-01T03:25:19;35.30;;;22.15;;
60582;SDS011;46415;47.536;19.066;2023-01-01T03:28:27;56.72;;;24.12;;
60582;SDS011;46415;47.536;19.066;2023-01-01T03:31:36;46.83;;;22.62;;
60582;SDS011;46415;47.536;19.066;2023-01-01T03:34:46;55.70;;;22.40;;
60582;SDS011;46415;47.536;19.066;2023-01-01T03:37:54;40.05;;;21.65;;
60582;SDS011;46415;47.536;19.066;2023-01-01T03:41:10;37.33;;;20.23;;
60582;SDS011;46415;47.536;19.066;2023-01-01T03:44:19;37.55;;;21.17;;
60582;SDS011;46415;47.536;19.066;2023-01-01T03:47:29;55.72;;;21.90;;
60582;SDS011;46415;47.536;19.066;2023-01-01T03:50:42;43.83;;;21.58;;
60582;SDS011;46415;47.536;19.066;2023-01-01T03:53:55;44.47;;;22.45;;
60582;SDS011;46415;47.536;19.066;2023-01-01T04:00:12;29.92;;;18.62;;
60582;SDS011;46415;47.536;19.066;2023-01-01T04:03:19;38.97;;;20.83;;
60582;SDS011;46415;47.536;19.066;2023-01-01T04:06:25;44.25;;;19.55;;
60582;SDS011;46415;47.536;19.066;2023-01-01T04:09:29;40.25;;;21.30;;
60582;SDS011;46415;47.536;19.066;2023-01-01T04:12:35;38.83;;;22.83;;
60582;SDS011;46415;47.536;19.066;2023-01-01T04:15:38;36.30;;;20.27;;
60582;SDS011;46415;47.536;19.066;2023-01-01T04:18:41;36.97;;;22.08;;
60582;SDS011;46415;47.536;19.066;2023-01-01T04:21:44;41.67;;;21.73;;
60582;SDS011;46415;47.536;19.066;2023-01-01T04:24:46;40.70;;;19.92;;
60582;SDS011;46415;47.536;19.066;2023-01-01T04:27:49;46.30;;;22.40;;
60582;SDS011;46415;47.536;19.066;2023-01-01T04:30:53;40.50;;;21.40;;
60582;SDS011;46415;47.536;19.066;2023-01-01T04:33:55;35.05;;;19.30;;
60582;SDS011;46415;47.536;19.066;2023-01-01T04:36:57;55.05;;;21.48;;
60582;SDS011;46415;47.536;19.066;2023-01-01T04:40:01;50.33;;;21.02;;
60582;SDS011;46415;47.536;19.066;2023-01-01T04:43:04;38.53;;;21.52;;
60582;SDS011;46415;47.536;19.066;2023-01-01T04:46:08;37.70;;;19.40;;
60582;SDS011;46415;47.536;19.066;2023-01-01T04:49:11;47.72;;;21.90;;
60582;SDS011;46415;47.536;19.066;2023-01-01T04:52:14;35.85;;;19.95;;
60582;SDS011;46415;47.536;19.066;2023-01-01T04:55:17;39.45;;;19.02;;
60582;SDS011;46415;47.536;19.066;2023-01-01T04:58:20;48.22;;;20.52;;
60582;SDS011;46415;47.536;19.066;2023-01-01T05:01:26;37.22;;;19.67;;
60582;SDS011;46415;47.536;19.066;2023-01-01T05:04:31;40.58;;;18.87;;
60582;SDS011;46415;47.536;19.066;2023-01-01T05:07:33;38.97;;;18.85;;
60582;SDS011;46415;47.536;19.066;2023-01-01T05:10:36;34.33;;;18.90;;
60582;SDS011;46415;47.536;19.066;2023-01-01T05:13:40;33.80;;;18.60;;
60582;SDS011;46415;47.536;19.066;2023-01-01T05:16:45;38.88;;;19.35;;
60582;SDS011;46415;47.536;19.066;2023-01-01T05:19:47;32.78;;;16.75;;
60582;SDS011;46415;47.536;19.066;2023-01-01T05:22:50;39.65;;;19.48;;
60582;SDS011;46415;47.536;19.066;2023-01-01T05:25:53;40.67;;;19.42;;
60582;SDS011;46415;47.536;19.066;2023-01-01T05:28:56;45.20;;;17.85;;
60582;SDS011;46415;47.536;19.066;2023-01-01T05:32:00;44.78;;;20.35;;
60582;SDS011;46415;47.536;19.066;2023-01-01T05:35:03;39.70;;;17.85;;
60582;SDS011;46415;47.536;19.066;2023-01-01T05:38:06;48.00;;;18.50;;
60582;SDS011;46415;47.536;19.066;2023-01-01T05:41:10;30.45;;;17.62;;
60582;SDS011;46415;47.536;19.066;2023-01-01T05:44:14;35.25;;;15.05;;
60582;SDS011;46415;47.536;19.066;2023-01-01T05:47:18;26.30;;;15.20;;
60582;SDS011;46415;47.536;19.066;2023-01-01T05:50:23;34.83;;;14.23;;
60582;SDS011;46415;47.536;19.066;2023-01-01T05:53:27;27.77;;;15.65;;
60582;SDS011;46415;47.536;19.066;2023-01-01T05:56:30;33.38;;;15.45;;
60582;SDS011;46415;47.536;19.066;2023-01-01T05:59:33;31.17;;;16.60;;
60582;SDS011;46415;47.536;19.066;2023-01-01T06:02:36;33.05;;;15.25;;
60582;SDS011;46415;47.536;19.066;2023-01-01T06:05:39;23.90;;;14.98;;
60582;SDS011;46415;47.536;19.066;2023-01-01T06:08:42;31.25;;;16.55;;
60582;SDS011;46415;47.536;19.066;2023-01-01T06:11:50;26.17;;;14.38;;
60582;SDS011;46415;47.536;19.066;2023-01-01T06:14:52;26.55;;;15.10;;
60582;SDS011;46415;47.536;19.066;2023-01-01T06:17:56;31.33;;;15.98;;
60582;SDS011;46415;47.536;19.066;2023-01-01T06:21:18;40.88;;;15.73;;
60582;SDS011;46415;47.536;19.066;2023-01-01T06:24:22;33.83;;;14.25;;
60582;SDS011;46415;47.536;19.066;2023-01-01T06:27:25;31.85;;;16.37;;
60582;SDS011;46415;47.536;19.066;2023-01-01T06:30:28;35.10;;;17.80;;
60582;SDS011;46415;47.536;19.066;2023-01-01T06:33:32;30.90;;;16.15;;
60582;SDS011;46415;47.536;19.066;2023-01-01T06:36:36;27.45;;;16.30;;
60582;SDS011;46415;47.536;19.066;2023-01-01T06:39:38;41.60;;;19.65;;
60582;SDS011;46415;47.536;19.066;2023-01-01T06:42:41;41.30;;;18.42;;
60582;SDS011;46415;47.536;19.066;2023-01-01T06:45:44;42.47;;;19.90;;
60582;SDS011;46415;47.536;19.066;2023-01-01T06:48:47;37.70;;;18.23;;
60582;SDS011;46415;47.536;19.066;2023-01-01T06:51:52;41.78;;;20.73;;
60582;SDS011;46415;47.536;19.066;2023-01-01T06:54:55;47.17;;;21.20;;
60582;SDS011;46415;47.536;19.066;2023-01-01T06:57:57;46.10;;;21.12;;
60582;SDS011;46415;47.536;19.066;2023-01-01T07:01:08;34.47;;;19.12;;
60582;SDS011;46415;47.536;19.066;2023-01-01T07:04:14;35.03;;;19.15;;
60582;SDS011;46415;47.536;19.066;2023-01-01T07:07:17;41.47;;;22.30;;
60582;SDS011;46415;47.536;19.066;2023-01-01T07:10:20;30.05;;;19.35;;
60582;SDS011;46415;47.536;19.066;2023-01-01T07:13:24;59.45;;;18.55;;
60582;SDS011;46415;47.536;19.066;2023-01-01T07:16:27;36.50;;;18.70;;
60582;SDS011;46415;47.536;19.066;2023-01-01T07:19:30;35.22;;;18.35;;
60582;SDS011;46415;47.536;19.066;2023-01-01T07:22:33;31.77;;;15.40;;
60582;SDS011;46415;47.536;19.066;2023-01-01T07:25:39;44.78;;;18.23;;
60582;SDS011;46415;47.536;19.066;2023-01-01T07:28:43;32.78;;;15.70;;
60582;SDS011;46415;47.536;19.066;2023-01-01T07:31:46;23.15;;;12.90;;
60582;SDS011;46415;47.536;19.066;2023-01-01T07:34:49;23.55;;;14.65;;
60582;SDS011;46415;47.536;19.066;2023-01-01T07:37:52;25.05;;;14.27;;
60582;SDS011;46415;47.536;19.066;2023-01-01T07:40:55;22.87;;;13.38;;
60582;SDS011;46415;47.536;19.066;2023-01-01T07:43:57;20.30;;;12.88;;
60582;SDS011;46415;47.536;19.066;2023-01-01T07:47:02;24.58;;;15.18;;
60582;SDS011;46415;47.536;19.066;2023-01-01T07:50:06;32.50;;;17.33;;
60582;SDS011;46415;47.536;19.066;2023-01-01T07:53:16;33.40;;;17.55;;
60582;SDS011;46415;47.536;19.066;2023-01-01T07:56:19;31.05;;;17.12;;
60582;SDS011;46415;47.536;19.066;2023-01-01T07:59:22;27.58;;;14.60;;
60582;SDS011;46415;47.536;19.066;2023-01-01T08:02:25;25.33;;;14.27;;
60582;SDS011;46415;47.536;19.066;2023-01-01T08:05:28;41.22;;;15.40;;
60582;SDS011;46415;47.536;19.066;2023-01-01T08:08:30;26.35;;;13.85;;
60582;SDS011;46415;47.536;19.066;2023-01-01T08:11:33;30.40;;;12.88;;
60582;SDS011;46415;47.536;19.066;2023-01-01T08:14:36;23.77;;;13.25;;
60582;SDS011;46415;47.536;19.066;2023-01-01T08:17:39;20.00;;;11.98;;
60582;SDS011;46415;47.536;19.066;2023-01-01T08:20:48;19.12;;;12.43;;
60582;SDS011;46415;47.536;19.066;2023-01-01T08:23:51;25.75;;;13.60;;
60582;SDS011;46415;47.536;19.066;2023-01-01T08:26:53;19.95;;;11.98;;
60582;SDS011;46415;47.536;19.066;2023-01-01T08:29:56;31.05;;;11.95;;
60582;SDS011;46415;47.536;19.066;2023-01-01T08:33:00;28.38;;;11.80;;
60582;SDS011;46415;47.536;19.066;2023-01-01T08:36:03;22.25;;;12.57;;
60582;SDS011;46415;47.536;19.066;2023-01-01T08:39:06;35.03;;;11.90;;
60582;SDS011;46415;47.536;19.066;2023-01-01T08:42:10;22.23;;;11.77;;
60582;SDS011;46415;47.536;19.066;2023-01-01T08:45:13;21.67;;;12.00;;
60582;SDS011;46415;47.536;19.066;2023-01-01T08:48:16;21.05;;;12.35;;
60582;SDS011;46415;47.536;19.066;2023-01-01T08:51:19;23.50;;;12.48;;
60582;SDS011;46415;47.536;19.066;2023-01-01T08:54:22;26.67;;;12.93;;
60582;SDS011;46415;47.536;19.066;2023-01-01T08:57:25;21.08;;;12.93;;
60582;SDS011;46415;47.536;19.066;2023-01-01T09:00:31;22.25;;;12.43;;
60582;SDS011;46415;47.536;19.066;2023-01-01T09:03:34;21.85;;;12.73;;
60582;SDS011;46415;47.536;19.066;2023-01-01T09:06:37;19.77;;;11.02;;
60582;SDS011;46415;47.536;19.066;2023-01-01T09:09:40;20.77;;;12.15;;
60582;SDS011;46415;47.536;19.066;2023-01-01T09:12:43;20.88;;;12.30;;
60582;SDS011;46415;47.536;19.066;2023-01-01T09:15:46;22.87;;;12.07;;
60582;SDS011;46415;47.536;19.066;2023-01-01T09:18:49;24.48;;;12.07;;
60582;SDS011;46415;47.536;19.066;2023-01-01T09:21:52;17.85;;;11.93;;
60582;SDS011;46415;47.536;19.066;2023-01-01T09:24:55;26.60;;;12.48;;
60582;SDS011;46415;47.536;19.066;2023-01-01T09:27:58;28.27;;;11.73;;
60582;SDS011;46415;47.536;19.066;2023-01-01T09:31:03;19.55;;;10.48;;
60582;SDS011;46415;47.536;19.066;2023-01-01T09:34:07;18.75;;;11.77;;
60582;SDS011;46415;47.536;19.066;2023-01-01T09:37:10;20.60;;;10.90;;
60582;SDS011;46415;47.536;19.066;2023-01-01T09:47:22;18.77;;;10.55;;
60582;SDS011;46415;47.536;19.066;2023-01-01T09:50:39;17.40;;;9.65;;
60582;SDS011;46415;47.536;19.066;2023-01-01T09:53:52;21.30;;;11.52;;
60582;SDS011;46415;47.536;19.066;2023-01-01T09:56:57;24.25;;;11.50;;
60582;SDS011;46415;47.536;19.066;2023-01-01T10:00:05;18.05;;;11.12;;
60582;SDS011;46415;47.536;19.066;2023-01-01T10:06:31;20.17;;;11.38;;
60582;SDS011;46415;47.536;19.066;2023-01-01T10:09:40;20.77;;;11.35;;
60582;SDS011;46415;47.536;19.066;2023-01-01T10:13:06;22.45;;;12.32;;
60582;SDS011;46415;47.536;19.066;2023-01-01T10:19:52;23.20;;;11.45;;
60582;SDS011;46415;47.536;19.066;2023-01-01T10:23:03;15.85;;;10.02;;
60582;SDS011;46415;47.536;19.066;2023-01-01T10:26:18;26.50;;;11.02;;
60582;SDS011;46415;47.536;19.066;2023-01-01T10:29:27;15.95;;;10.95;;
60582;SDS011;46415;47.536;19.066;2023-01-01T10:32:46;22.67;;;11.15;;
60582;SDS011;46415;47.536;19.066;2023-01-01T10:35:51;21.23;;;10.75;;
60582;SDS011;46415;47.536;19.066;2023-01-01T10:38:59;18.20;;;11.57;;
60582;SDS011;46415;47.536;19.066;2023-01-01T10:42:02;20.08;;;12.07;;
60582;SDS011;46415;47.536;19.066;2023-01-01T10:45:10;17.52;;;10.70;;
60582;SDS011;46415;47.536;19.066;2023-01-01T10:48:19;17.80;;;11.43;;
60582;SDS011;46415;47.536;19.066;2023-01-01T10:51:24;20.02;;;11.02;;
60582;SDS011;46415;47.536;19.066;2023-01-01T10:54:35;18.37;;;11.35;;
60582;SDS011;46415;47.536;19.066;2023-01-01T10:57:39;17.35;;;11.07;;
60582;SDS011;46415;47.536;19.066;2023-01-01T11:00:43;20.12;;;11.63;;
60582;SDS011;46415;47.536;19.066;2023-01-01T11:07:26;17.85;;;10.95;;
60582;SDS011;46415;47.536;19.066;2023-01-01T11:10:32;22.05;;;11.95;;
60582;SDS011;46415;47.536;19.066;2023-01-01T11:13:35;20.08;;;13.13;;
60582;SDS011;46415;47.536;19.066;2023-01-01T11:16:37;24.37;;;12.63;;
60582;SDS011;46415;47.536;19.066;2023-01-01T11:19:42;23.08;;;12.73;;
60582;SDS011;46415;47.536;19.066;2023-01-01T11:22:52;21.85;;;12.23;;
60582;SDS011;46415;47.536;19.066;2023-01-01T11:26:00;25.50;;;14.43;;
60582;SDS011;46415;47.536;19.066;2023-01-01T11:32:19;18.52;;;12.50;;
60582;SDS011;46415;47.536;19.066;2023-01-01T11:35:24;18.73;;;11.20;;
60582;SDS011;46415;47.536;19.066;2023-01-01T11:38:29;18.52;;;12.43;;
60582;SDS011;46415;47.536;19.066;2023-01-01T11:41:45;18.58;;;12.45;;
60582;SDS011;46415;47.536;19.066;2023-01-01T11:44:57;13.93;;;9.50;;
60582;SDS011;46415;47.536;19.066;2023-01-01T11:48:25;16.40;;;11.32;;
60582;SDS011;46415;47.536;19.066;2023-01-01T11:51:32;17.52;;;11.43;;
60582;SDS011;46415;47.536;19.066;2023-01-01T11:54:35;16.75;;;10.32;;
60582;SDS011;46415;47.536;19.066;2023-01-01T11:57:40;17.70;;;10.60;;
60582;SDS011;46415;47.536;19.066;2023-01-01T12:00:48;20.40;;;10.15;;
60582;SDS011;46415;47.536;19.066;2023-01-01T12:04:07;15.63;;;9.73;;
60582;SDS011;46415;47.536;19.066;2023-01-01T12:07:27;17.25;;;9.27;;
60582;SDS011;46415;47.536;19.066;2023-01-01T12:10:43;17.60;;;9.13;;
60582;SDS011;46415;47.536;19.066;2023-01-01T12:13:53;14.27;;;10.02;;
60582;SDS011;46415;47.536;19.066;2023-01-01T12:17:02;12.10;;;8.90;;
60582;SDS011;46415;47.536;19.066;2023-01-01T12:20:22;14.05;;;9.93;;
60582;SDS011;46415;47.536;19.066;2023-01-01T12:23:32;12.70;;;9.10;;
60582;SDS011;46415;47.536;19.066;2023-01-01T12:33:03;15.98;;;10.35;;
60582;SDS011;46415;47.536;19.066;2023-01-01T12:56:33;19.30;;;11.55;;
60582;SDS011;46415;47.536;19.066;2023-01-01T12:59:46;16.15;;;10.20;;
60582;SDS011;46415;47.536;19.066;2023-01-01T13:03:04;18.23;;;10.43;;
60582;SDS011;46415;47.536;19.066;2023-01-01T13:06:11;16.80;;;10.90;;
60582;SDS011;46415;47.536;19.066;2023-01-01T13:09:22;16.35;;;10.02;;
60582;SDS011;46415;47.536;19.066;2023-01-01T13:12:29;14.45;;;9.43;;
60582;SDS011;46415;47.536;19.066;2023-01-01T13:18:40;17.65;;;9.20;;
60582;SDS011;46415;47.536;19.066;2023-01-01T13:21:43;17.02;;;10.85;;
60582;SDS011;46415;47.536;19.066;2023-01-01T13:28:25;13.98;;;8.90;;
60582;SDS011;46415;47.536;19.066;2023-01-01T13:34:59;12.82;;;8.18;;
60582;SDS011;46415;47.536;19.066;2023-01-01T13:38:07;16.52;;;8.88;;
60582;SDS011;46415;47.536;19.066;2023-01-01T13:41:45;14.70;;;9.88;;
60582;SDS011;46415;47.536;19.066;2023-01-01T13:44:48;16.98;;;8.45;;
60582;SDS011;46415;47.536;19.066;2023-01-01T13:55:04;15.03;;;8.90;;
60582;SDS011;46415;47.536;19.066;2023-01-01T13:58:30;17.48;;;9.55;;
60582;SDS011;46415;47.536;19.066;2023-01-01T14:05:33;14.82;;;9.15;;
60582;SDS011;46415;47.536;19.066;2023-01-01T14:08:40;14.32;;;9.25;;
60582;SDS011;46415;47.536;19.066;2023-01-01T14:11:43;19.42;;;10.25;;
60582;SDS011;46415;47.536;19.066;2023-01-01T14:14:46;14.40;;;9.10;;
60582;SDS011;46415;47.536;19.066;2023-01-01T14:17:50;16.98;;;10.05;;
60582;SDS011;46415;47.536;19.066;2023-01-01T14:21:02;17.10;;;10.95;;
60582;SDS011;46415;47.536;19.066;2023-01-01T14:24:12;15.20;;;10.32;;
60582;SDS011;46415;47.536;19.066;2023-01-01T14:27:19;18.37;;;11.18;;
60582;SDS011;46415;47.536;19.066;2023-01-01T14:30:23;19.48;;;10.70;;
60582;SDS011;46415;47.536;19.066;2023-01-01T14:33:28;16.52;;;10.73;;
60582;SDS011;46415;47.536;19.066;2023-01-01T14:36:32;17.70;;;11.38;;
60582;SDS011;46415;47.536;19.066;2023-01-01T14:39:35;16.77;;;9.05;;
60582;SDS011;46415;47.536;19.066;2023-01-01T14:42:39;17.08;;;10.68;;
60582;SDS011;46415;47.536;19.066;2023-01-01T14:45:42;17.12;;;9.82;;
60582;SDS011;46415;47.536;19.066;2023-01-01T14:48:46;16.15;;;9.05;;
60582;SDS011;46415;47.536;19.066;2023-01-01T14:52:02;18.05;;;8.98;;
60582;SDS011;46415;47.536;19.066;2023-01-01T14:55:16;18.58;;;9.40;;
60582;SDS011;46415;47.536;19.066;2023-01-01T14:58:24;15.15;;;9.68;;
60582;SDS011;46415;47.536;19.066;2023-01-01T15:01:29;16.20;;;9.18;;
60582;SDS011;46415;47.536;19.066;2023-01-01T15:04:32;15.15;;;9.73;;
60582;SDS011;46415;47.536;19.066;2023-01-01T15:07:36;14.43;;;9.73;;
60582;SDS011;46415;47.536;19.066;2023-01-01T15:10:40;16.80;;;9.88;;
60582;SDS011;46415;47.536;19.066;2023-01-01T15:13:59;19.40;;;10.57;;
60582;SDS011;46415;47.536;19.066;2023-01-01T15:17:04;14.50;;;9.88;;
60582;SDS011;46415;47.536;19.066;2023-01-01T15:20:18;16.02;;;10.57;;
60582;SDS011;46415;47.536;19.066;2023-01-01T15:23:22;15.52;;;9.65;;
60582;SDS011;46415;47.536;19.066;2023-01-01T15:26:36;16.30;;;10.50;;
60582;SDS011;46415;47.536;19.066;2023-01-01T15:29:59;19.23;;;11.12;;
60582;SDS011;46415;47.536;19.066;2023-01-01T15:33:04;19.10;;;10.70;;
60582;SDS011;46415;47.536;19.066;2023-01-01T15:36:09;19.85;;;10.80;;
60582;SDS011;46415;47.536;19.066;2023-01-01T15:39:12;19.80;;;12.02;;
60582;SDS011;46415;47.536;19.066;2023-01-01T15:42:34;22.08;;;11.90;;
60582;SDS011;46415;47.536;19.066;2023-01-01T15:45:40;23.65;;;11.63;;
60582;SDS011;46415;47.536;19.066;2023-01-01T15:48:51;22.08;;;10.68;;
60582;SDS011;46415;47.536;19.066;2023-01-01T15:51:58;19.02;;;10.65;;
60582;SDS011;46415;47.536;19.066;2023-01-01T15:55:05;16.70;;;10.18;;
60582;SDS011;46415;47.536;19.066;2023-01-01T15:58:12;19.98;;;12.23;;
60582;SDS011;46415;47.536;19.066;2023-01-01T16:01:23;18.25;;;10.55;;
60582;SDS011;46415;47.536;19.066;2023-01-01T16:04:34;19.52;;;11.10;;
60582;SDS011;46415;47.536;19.066;2023-01-01T16:07:37;26.27;;;12.48;;
60582;SDS011;46415;47.536;19.066;2023-01-01T16:10:40;23.33;;;10.88;;
60582;SDS011;46415;47.536;19.066;2023-01-01T16:13:43;19.00;;;11.82;;
60582;SDS011;46415;47.536;19.066;2023-01-01T16:16:48;20.62;;;11.32;;
60582;SDS011;46415;47.536;19.066;2023-01-01T16:19:55;21.15;;;12.30;;
60582;SDS011;46415;47.536;19.066;2023-01-01T16:22:58;19.50;;;12.55;;
60582;SDS011;46415;47.536;19.066;2023-01-01T16:26:01;20.60;;;11.73;;
60582;SDS011;46415;47.536;19.066;2023-01-01T16:29:04;19.60;;;11.05;;
60582;SDS011;46415;47.536;19.066;2023-01-01T16:32:09;15.43;;;10.93;;
60582;SDS011;46415;47.536;19.066;2023-01-01T16:35:18;17.42;;;11.35;;
60582;SDS011;46415;47.536;19.066;2023-01-01T16:38:21;18.85;;;11.93;;
60582;SDS011;46415;47.536;19.066;2023-01-01T16:41:24;16.35;;;11.35;;
60582;SDS011;46415;47.536;19.066;2023-01-01T16:44:29;17.65;;;10.25;;
60582;SDS011;46415;47.536;19.066;2023-01-01T16:47:32;16.25;;;10.27;;
60582;SDS011;46415;47.536;19.066;2023-01-01T16:50:35;15.25;;;10.68;;
60582;SDS011;46415;47.536;19.066;2023-01-01T16:53:38;20.55;;;11.52;;
60582;SDS011;46415;47.536;19.066;2023-01-01T16:56:41;18.40;;;11.77;;
60582;SDS011;46415;47.536;19.066;2023-01-01T16:59:44;18.42;;;11.50;;
60582;SDS011;46415;47.536;19.066;2023-01-01T17:02:48;19.83;;;10.95;;
60582;SDS011;46415;47.536;19.066;2023-01-01T17:05:51;17.90;;;10.98;;
60582;SDS011;46415;47.536;19.066;2023-01-01T17:08:54;20.60;;;12.15;;
60582;SDS011;46415;47.536;19.066;2023-01-01T17:11:57;19.20;;;12.30;;
60582;SDS011;46415;47.536;19.066;2023-01-01T17:15:00;19.23;;;10.73;;
60582;SDS011;46415;47.536;19.066;2023-01-01T17:18:03;18.70;;;11.40;;
60582;SDS011;46415;47.536;19.066;2023-01-01T17:21:07;17.40;;;11.93;;
60582;SDS011;46415;47.536;19.066;2023-01-01T17:24:11;18.95;;;12.25;;
60582;SDS011;46415;47.536;19.066;2023-01-01T17:27:14;21.17;;;13.62;;
60582;SDS011;46415;47.536;19.066;2023-01-01T17:30:20;20.92;;;12.77;;
60582;SDS011;46415;47.536;19.066;2023-01-01T17:33:23;19.40;;;11.85;;
60582;SDS011;46415;47.536;19.066;2023-01-01T17:36:26;21.37;;;12.50;;
60582;SDS011;46415;47.536;19.066;2023-01-01T17:39:29;18.92;;;12.60;;
60582;SDS011;46415;47.536;19.066;2023-01-01T17:42:33;20.00;;;11.95;;
60582;SDS011;46415;47.536;19.066;2023-01-01T17:45:36;23.55;;;12.07;;
60582;SDS011;46415;47.536;19.066;2023-01-01T17:48:39;23.38;;;13.93;;
60582;SDS011;46415;47.536;19.066;2023-01-01T17:51:42;21.00;;;12.63;;
60582;SDS011;46415;47.536;19.066;2023-01-01T17:54:45;19.08;;;12.77;;
60582;SDS011;46415;47.536;19.066;2023-01-01T17:57:50;20.52;;;12.50;;
60582;SDS011;46415;47.536;19.066;2023-01-01T18:01:02;21.35;;;12.90;;
60582;SDS011;46415;47.536;19.066;2023-01-01T18:04:15;20.45;;;11.43;;
60582;SDS011;46415;47.536;19.066;2023-01-01T18:07:17;22.65;;;14.73;;
60582;SDS011;46415;47.536;19.066;2023-01-01T18:10:21;20.20;;;12.37;;
60582;SDS011;46415;47.536;19.066;2023-01-01T18:13:24;21.33;;;12.75;;
60582;SDS011;46415;47.536;19.066;2023-01-01T18:16:27;17.20;;;11.32;;
60582;SDS011;46415;47.536;19.066;2023-01-01T18:19:31;23.90;;;13.68;;
60582;SDS011;46415;47.536;19.066;2023-01-01T18:22:34;22.45;;;13.43;;
60582;SDS011;46415;47.536;19.066;2023-01-01T18:25:44;19.12;;;12.20;;
60582;SDS011;46415;47.536;19.066;2023-01-01T18:28:57;22.25;;;14.32;;
60582;SDS011;46415;47.536;19.066;2023-01-01T18:32:02;19.60;;;13.25;;
60582;SDS011;46415;47.536;19.066;2023-01-01T18:35:05;19.40;;;12.43;;
60582;SDS011;46415;47.536;19.066;2023-01-01T18:38:10;18.23;;;12.48;;
60582;SDS011;46415;47.536;19.066;2023-01-01T18:41:21;22.10;;;12.30;;
60582;SDS011;46415;47.536;19.066;2023-01-01T18:44:29;23.12;;;14.15;;
60582;SDS011;46415;47.536;19.066;2023-01-01T18:47:33;20.35;;;12.40;;
60582;SDS011;46415;47.536;19.066;2023-01-01T18:50:36;20.58;;;11.40;;
60582;SDS011;46415;47.536;19.066;2023-01-01T18:53:39;19.65;;;11.43;;
60582;SDS011;46415;47.536;19.066;2023-01-01T18:56:42;20.37;;;12.25;;
60582;SDS011;46415;47.536;19.066;2023-01-01T18:59:48;23.80;;;13.15;;
60582;SDS011;46415;47.536;19.066;2023-01-01T19:06:02;21.85;;;12.45;;
60582;SDS011;46415;47.536;19.066;2023-01-01T19:09:22;19.85;;;11.77;;
60582;SDS011;46415;47.536;19.066;2023-01-01T19:12:26;22.37;;;13.35;;
60582;SDS011;46415;47.536;19.066;2023-01-01T19:15:29;20.73;;;12.02;;
60582;SDS011;46415;47.536;19.066;2023-01-01T19:18:33;18.12;;;11.27;;
60582;SDS011;46415;47.536;19.066;2023-01-01T19:21:36;25.70;;;13.80;;
60582;SDS011;46415;47.536;19.066;2023-01-01T19:24:42;21.10;;;12.13;;
60582;SDS011;46415;47.536;19.066;2023-01-01T19:27:47;19.95;;;12.32;;
60582;SDS011;46415;47.536;19.066;2023-01-01T19:30:55;19.62;;;11.70;;
60582;SDS011;46415;47.536;19.066;2023-01-01T19:33:58;21.75;;;13.23;;
60582;SDS011;46415;47.536;19.066;2023-01-01T19:37:01;20.00;;;12.27;;
60582;SDS011;46415;47.536;19.066;2023-01-01T19:40:04;22.60;;;15.23;;
60582;SDS011;46415;47.536;19.066;2023-01-01T19:43:08;20.02;;;12.90;;
60582;SDS011;46415;47.536;19.066;2023-01-01T19:46:11;26.90;;;13.93;;
60582;SDS011;46415;47.536;19.066;2023-01-01T19:49:14;25.60;;;14.43;;